Terminal Aerodrome Forecast
Issued by NWS

Home | Current Version | Previous Version | Graphics & Text | Print | Product List | Glossary On
Versions: 1 2 3 4 5 6 7 8 9 10 11 12 13 14 15 16 17 18 19 20
000
FTUS43 KGRB 231000 AAA
TAFRHI
TAF AMD
KRHI 231028Z 2310/2406 17005KT P6SM SCT025 OVC035
      TEMPO 2311/2313 6SM -SHRA BKN025
     FM231300 17005KT P6SM -SHRA SCT015 OVC025
     FM231700 18004KT 3SM -SHRA BR OVC015
     FM232100 17008KT 5SM -RA BR OVC012
     FM240100 24003KT P6SM OVC009=

USA.gov is the U.S. government's official web portal to all federal, state and local government web resources and services.